sensor_id;sensor_type;location;lat;lon;timestamp;P1;durP1;ratioP1;P2;durP2;ratioP2
6434;SDS011;3250;42.694;23.278;2023-08-30T00:01:57;6.93;;;5.70;;
6434;SDS011;3250;42.694;23.278;2023-08-30T00:04:22;8.55;;;5.65;;
6434;SDS011;3250;42.694;23.278;2023-08-30T00:06:48;7.55;;;5.30;;
6434;SDS011;3250;42.694;23.278;2023-08-30T00:09:13;16.30;;;6.00;;
6434;SDS011;3250;42.694;23.278;2023-08-30T00:11:39;8.97;;;5.10;;
6434;SDS011;3250;42.694;23.278;2023-08-30T00:14:05;10.88;;;5.80;;
6434;SDS011;3250;42.694;23.278;2023-08-30T00:16:34;9.90;;;6.03;;
6434;SDS011;3250;42.694;23.278;2023-08-30T00:19:00;6.07;;;4.63;;
6434;SDS011;3250;42.694;23.278;2023-08-30T00:21:26;8.97;;;5.83;;
6434;SDS011;3250;42.694;23.278;2023-08-30T00:23:52;9.23;;;4.95;;
6434;SDS011;3250;42.694;23.278;2023-08-30T00:26:18;8.98;;;4.78;;
6434;SDS011;3250;42.694;23.278;2023-08-30T00:28:43;8.30;;;5.15;;
6434;SDS011;3250;42.694;23.278;2023-08-30T00:31:08;10.20;;;4.72;;
6434;SDS011;3250;42.694;23.278;2023-08-30T00:33:34;8.98;;;4.85;;
6434;SDS011;3250;42.694;23.278;2023-08-30T00:35:59;10.13;;;5.85;;
6434;SDS011;3250;42.694;23.278;2023-08-30T00:38:28;9.35;;;4.60;;
6434;SDS011;3250;42.694;23.278;2023-08-30T00:40:54;11.40;;;5.28;;
6434;SDS011;3250;42.694;23.278;2023-08-30T00:43:20;10.43;;;4.78;;
6434;SDS011;3250;42.694;23.278;2023-08-30T00:45:46;7.32;;;4.78;;
6434;SDS011;3250;42.694;23.278;2023-08-30T00:48:12;17.77;;;11.15;;
6434;SDS011;3250;42.694;23.278;2023-08-30T00:50:38;10.40;;;5.80;;
6434;SDS011;3250;42.694;23.278;2023-08-30T00:53:05;6.93;;;4.72;;
6434;SDS011;3250;42.694;23.278;2023-08-30T00:55:32;9.68;;;4.88;;
6434;SDS011;3250;42.694;23.278;2023-08-30T00:57:59;9.43;;;5.63;;
6434;SDS011;3250;42.694;23.278;2023-08-30T01:00:25;9.47;;;5.13;;
6434;SDS011;3250;42.694;23.278;2023-08-30T01:02:52;8.57;;;5.22;;
6434;SDS011;3250;42.694;23.278;2023-08-30T01:05:18;9.63;;;4.72;;
6434;SDS011;3250;42.694;23.278;2023-08-30T01:07:44;9.05;;;4.85;;
6434;SDS011;3250;42.694;23.278;2023-08-30T01:10:09;8.98;;;4.90;;
6434;SDS011;3250;42.694;23.278;2023-08-30T01:13:09;7.53;;;4.55;;
6434;SDS011;3250;42.694;23.278;2023-08-30T01:15:31;7.10;;;4.80;;
6434;SDS011;3250;42.694;23.278;2023-08-30T01:17:57;6.82;;;4.78;;
6434;SDS011;3250;42.694;23.278;2023-08-30T01:20:24;14.45;;;4.70;;
6434;SDS011;3250;42.694;23.278;2023-08-30T01:28:28;6.18;;;4.72;;
6434;SDS011;3250;42.694;23.278;2023-08-30T01:30:55;8.20;;;4.40;;
6434;SDS011;3250;42.694;23.278;2023-08-30T01:33:23;8.73;;;4.28;;
6434;SDS011;3250;42.694;23.278;2023-08-30T01:35:52;11.32;;;4.72;;
6434;SDS011;3250;42.694;23.278;2023-08-30T01:38:19;10.20;;;4.20;;
6434;SDS011;3250;42.694;23.278;2023-08-30T01:40:45;7.63;;;4.68;;
6434;SDS011;3250;42.694;23.278;2023-08-30T01:43:13;6.80;;;4.35;;
6434;SDS011;3250;42.694;23.278;2023-08-30T01:45:40;12.77;;;4.82;;
6434;SDS011;3250;42.694;23.278;2023-08-30T01:48:09;8.25;;;5.05;;
6434;SDS011;3250;42.694;23.278;2023-08-30T01:50:36;6.75;;;4.55;;
6434;SDS011;3250;42.694;23.278;2023-08-30T01:53:04;13.30;;;7.50;;
6434;SDS011;3250;42.694;23.278;2023-08-30T01:55:31;7.43;;;4.65;;
6434;SDS011;3250;42.694;23.278;2023-08-30T01:57:58;8.77;;;5.97;;
6434;SDS011;3250;42.694;23.278;2023-08-30T02:00:23;9.35;;;5.03;;
6434;SDS011;3250;42.694;23.278;2023-08-30T02:02:49;8.02;;;4.18;;
6434;SDS011;3250;42.694;23.278;2023-08-30T02:05:14;6.68;;;4.28;;
6434;SDS011;3250;42.694;23.278;2023-08-30T02:07:43;7.13;;;4.05;;
6434;SDS011;3250;42.694;23.278;2023-08-30T02:10:17;9.32;;;5.05;;
6434;SDS011;3250;42.694;23.278;2023-08-30T02:12:58;11.20;;;6.10;;
6434;SDS011;3250;42.694;23.278;2023-08-30T02:15:25;10.43;;;5.80;;
6434;SDS011;3250;42.694;23.278;2023-08-30T02:17:52;12.15;;;5.80;;
6434;SDS011;3250;42.694;23.278;2023-08-30T02:20:18;8.50;;;4.72;;
6434;SDS011;3250;42.694;23.278;2023-08-30T02:22:44;7.22;;;5.18;;
6434;SDS011;3250;42.694;23.278;2023-08-30T02:25:10;23.38;;;13.65;;
6434;SDS011;3250;42.694;23.278;2023-08-30T02:27:35;32.67;;;15.52;;
6434;SDS011;3250;42.694;23.278;2023-08-30T02:30:01;16.38;;;10.60;;
6434;SDS011;3250;42.694;23.278;2023-08-30T02:32:27;13.40;;;8.95;;
6434;SDS011;3250;42.694;23.278;2023-08-30T02:34:53;10.80;;;6.07;;
6434;SDS011;3250;42.694;23.278;2023-08-30T02:37:18;10.80;;;6.90;;
6434;SDS011;3250;42.694;23.278;2023-08-30T02:39:44;9.65;;;6.00;;
6434;SDS011;3250;42.694;23.278;2023-08-30T02:42:10;8.48;;;5.45;;
6434;SDS011;3250;42.694;23.278;2023-08-30T02:44:35;10.43;;;5.63;;
6434;SDS011;3250;42.694;23.278;2023-08-30T02:47:01;9.48;;;5.75;;
6434;SDS011;3250;42.694;23.278;2023-08-30T02:49:26;10.98;;;5.80;;
6434;SDS011;3250;42.694;23.278;2023-08-30T02:51:51;17.38;;;7.18;;
6434;SDS011;3250;42.694;23.278;2023-08-30T02:54:17;12.68;;;6.53;;
6434;SDS011;3250;42.694;23.278;2023-08-30T02:56:42;7.07;;;5.50;;
6434;SDS011;3250;42.694;23.278;2023-08-30T02:59:09;12.73;;;6.35;;
6434;SDS011;3250;42.694;23.278;2023-08-30T03:01:35;9.23;;;6.10;;
6434;SDS011;3250;42.694;23.278;2023-08-30T03:04:01;10.60;;;5.25;;
6434;SDS011;3250;42.694;23.278;2023-08-30T03:06:26;8.90;;;5.10;;
6434;SDS011;3250;42.694;23.278;2023-08-30T03:08:53;10.63;;;5.75;;
6434;SDS011;3250;42.694;23.278;2023-08-30T03:11:19;9.43;;;4.40;;
6434;SDS011;3250;42.694;23.278;2023-08-30T03:13:44;10.85;;;5.60;;
6434;SDS011;3250;42.694;23.278;2023-08-30T03:16:13;9.30;;;5.22;;
6434;SDS011;3250;42.694;23.278;2023-08-30T03:18:40;9.40;;;5.30;;
6434;SDS011;3250;42.694;23.278;2023-08-30T03:21:06;7.45;;;4.43;;
6434;SDS011;3250;42.694;23.278;2023-08-30T03:23:32;8.85;;;4.88;;
6434;SDS011;3250;42.694;23.278;2023-08-30T03:25:59;10.18;;;5.40;;
6434;SDS011;3250;42.694;23.278;2023-08-30T03:28:24;7.78;;;4.35;;
6434;SDS011;3250;42.694;23.278;2023-08-30T03:30:50;10.95;;;4.35;;
6434;SDS011;3250;42.694;23.278;2023-08-30T03:33:15;6.25;;;4.60;;
6434;SDS011;3250;42.694;23.278;2023-08-30T03:35:41;10.23;;;5.32;;
6434;SDS011;3250;42.694;23.278;2023-08-30T03:38:06;7.07;;;4.82;;
6434;SDS011;3250;42.694;23.278;2023-08-30T03:40:32;8.70;;;4.80;;
6434;SDS011;3250;42.694;23.278;2023-08-30T03:42:57;10.43;;;4.80;;
6434;SDS011;3250;42.694;23.278;2023-08-30T03:45:22;10.95;;;5.03;;
6434;SDS011;3250;42.694;23.278;2023-08-30T03:47:48;9.60;;;5.30;;
6434;SDS011;3250;42.694;23.278;2023-08-30T03:50:13;8.27;;;4.60;;
6434;SDS011;3250;42.694;23.278;2023-08-30T03:52:39;11.40;;;4.72;;
6434;SDS011;3250;42.694;23.278;2023-08-30T03:55:04;14.48;;;5.32;;
6434;SDS011;3250;42.694;23.278;2023-08-30T03:57:30;8.77;;;5.07;;
6434;SDS011;3250;42.694;23.278;2023-08-30T03:59:55;7.63;;;4.75;;
6434;SDS011;3250;42.694;23.278;2023-08-30T04:02:21;12.85;;;5.38;;
6434;SDS011;3250;42.694;23.278;2023-08-30T04:04:47;13.93;;;5.70;;
6434;SDS011;3250;42.694;23.278;2023-08-30T04:07:13;11.73;;;5.03;;
6434;SDS011;3250;42.694;23.278;2023-08-30T04:09:39;8.18;;;4.32;;
6434;SDS011;3250;42.694;23.278;2023-08-30T04:12:04;12.68;;;5.00;;
6434;SDS011;3250;42.694;23.278;2023-08-30T04:14:30;22.75;;;8.00;;
6434;SDS011;3250;42.694;23.278;2023-08-30T04:16:56;26.27;;;9.07;;
6434;SDS011;3250;42.694;23.278;2023-08-30T04:19:21;12.10;;;5.93;;
6434;SDS011;3250;42.694;23.278;2023-08-30T04:21:46;14.40;;;7.18;;
6434;SDS011;3250;42.694;23.278;2023-08-30T04:24:12;9.55;;;5.65;;
6434;SDS011;3250;42.694;23.278;2023-08-30T04:26:37;18.85;;;6.63;;
6434;SDS011;3250;42.694;23.278;2023-08-30T04:29:03;14.63;;;6.22;;
6434;SDS011;3250;42.694;23.278;2023-08-30T04:31:28;16.00;;;5.90;;
6434;SDS011;3250;42.694;23.278;2023-08-30T04:33:54;25.20;;;5.97;;
6434;SDS011;3250;42.694;23.278;2023-08-30T04:36:20;14.05;;;6.32;;
6434;SDS011;3250;42.694;23.278;2023-08-30T04:38:46;18.38;;;6.13;;
6434;SDS011;3250;42.694;23.278;2023-08-30T04:41:12;9.52;;;5.45;;
6434;SDS011;3250;42.694;23.278;2023-08-30T04:43:37;9.25;;;3.85;;
6434;SDS011;3250;42.694;23.278;2023-08-30T04:46:02;9.93;;;5.28;;
6434;SDS011;3250;42.694;23.278;2023-08-30T04:48:28;30.70;;;14.07;;
6434;SDS011;3250;42.694;23.278;2023-08-30T04:51:01;10.38;;;5.38;;
6434;SDS011;3250;42.694;23.278;2023-08-30T04:53:28;8.85;;;3.75;;
6434;SDS011;3250;42.694;23.278;2023-08-30T04:55:53;13.43;;;4.80;;
6434;SDS011;3250;42.694;23.278;2023-08-30T04:58:19;7.20;;;3.30;;
6434;SDS011;3250;42.694;23.278;2023-08-30T05:00:44;8.27;;;4.10;;
6434;SDS011;3250;42.694;23.278;2023-08-30T05:03:10;7.38;;;3.72;;
6434;SDS011;3250;42.694;23.278;2023-08-30T05:05:35;12.48;;;3.35;;
6434;SDS011;3250;42.694;23.278;2023-08-30T05:08:01;6.22;;;4.30;;
6434;SDS011;3250;42.694;23.278;2023-08-30T05:10:27;8.38;;;3.60;;
6434;SDS011;3250;42.694;23.278;2023-08-30T05:12:52;6.13;;;3.50;;
6434;SDS011;3250;42.694;23.278;2023-08-30T05:15:18;8.10;;;3.90;;
6434;SDS011;3250;42.694;23.278;2023-08-30T05:17:44;9.63;;;2.95;;
6434;SDS011;3250;42.694;23.278;2023-08-30T05:20:09;7.90;;;3.17;;
6434;SDS011;3250;42.694;23.278;2023-08-30T05:22:35;4.20;;;2.80;;
6434;SDS011;3250;42.694;23.278;2023-08-30T05:25:00;8.35;;;3.17;;
6434;SDS011;3250;42.694;23.278;2023-08-30T05:27:26;5.80;;;3.97;;
6434;SDS011;3250;42.694;23.278;2023-08-30T05:29:52;5.20;;;2.42;;
6434;SDS011;3250;42.694;23.278;2023-08-30T05:32:18;7.90;;;2.72;;
6434;SDS011;3250;42.694;23.278;2023-08-30T05:34:43;6.57;;;2.78;;
6434;SDS011;3250;42.694;23.278;2023-08-30T05:37:09;6.63;;;2.72;;
6434;SDS011;3250;42.694;23.278;2023-08-30T05:39:35;9.52;;;4.07;;
6434;SDS011;3250;42.694;23.278;2023-08-30T05:42:00;12.75;;;4.90;;
6434;SDS011;3250;42.694;23.278;2023-08-30T05:44:26;5.85;;;2.88;;
6434;SDS011;3250;42.694;23.278;2023-08-30T05:46:51;4.57;;;3.50;;
6434;SDS011;3250;42.694;23.278;2023-08-30T05:49:16;7.80;;;3.90;;
6434;SDS011;3250;42.694;23.278;2023-08-30T05:51:42;7.28;;;3.42;;
6434;SDS011;3250;42.694;23.278;2023-08-30T05:54:07;4.85;;;2.90;;
6434;SDS011;3250;42.694;23.278;2023-08-30T05:56:33;7.97;;;3.38;;
6434;SDS011;3250;42.694;23.278;2023-08-30T05:58:58;8.27;;;4.00;;
6434;SDS011;3250;42.694;23.278;2023-08-30T06:01:24;6.45;;;2.50;;
6434;SDS011;3250;42.694;23.278;2023-08-30T06:03:49;5.28;;;3.97;;
6434;SDS011;3250;42.694;23.278;2023-08-30T06:06:15;21.10;;;12.73;;
6434;SDS011;3250;42.694;23.278;2023-08-30T06:08:44;7.43;;;4.43;;
6434;SDS011;3250;42.694;23.278;2023-08-30T06:11:09;6.25;;;3.00;;
6434;SDS011;3250;42.694;23.278;2023-08-30T06:13:35;3.78;;;2.88;;
6434;SDS011;3250;42.694;23.278;2023-08-30T06:16:00;6.95;;;3.80;;
6434;SDS011;3250;42.694;23.278;2023-08-30T06:18:29;13.98;;;8.05;;
6434;SDS011;3250;42.694;23.278;2023-08-30T06:20:55;6.85;;;3.95;;
6434;SDS011;3250;42.694;23.278;2023-08-30T06:23:20;8.85;;;5.60;;
6434;SDS011;3250;42.694;23.278;2023-08-30T06:25:53;10.13;;;6.45;;
6434;SDS011;3250;42.694;23.278;2023-08-30T06:28:22;14.63;;;6.95;;
6434;SDS011;3250;42.694;23.278;2023-08-30T06:30:48;7.05;;;3.70;;
6434;SDS011;3250;42.694;23.278;2023-08-30T06:33:13;3.80;;;2.95;;
6434;SDS011;3250;42.694;23.278;2023-08-30T06:35:39;6.07;;;2.78;;
6434;SDS011;3250;42.694;23.278;2023-08-30T06:38:04;8.80;;;5.65;;
6434;SDS011;3250;42.694;23.278;2023-08-30T06:40:30;10.75;;;4.43;;
6434;SDS011;3250;42.694;23.278;2023-08-30T06:42:56;5.70;;;3.22;;
6434;SDS011;3250;42.694;23.278;2023-08-30T06:45:22;5.35;;;2.50;;
6434;SDS011;3250;42.694;23.278;2023-08-30T06:47:48;6.10;;;3.00;;
6434;SDS011;3250;42.694;23.278;2023-08-30T06:50:14;6.72;;;3.67;;
6434;SDS011;3250;42.694;23.278;2023-08-30T06:52:40;4.95;;;2.80;;
6434;SDS011;3250;42.694;23.278;2023-08-30T06:55:05;7.00;;;3.40;;
6434;SDS011;3250;42.694;23.278;2023-08-30T06:57:31;9.15;;;5.38;;
6434;SDS011;3250;42.694;23.278;2023-08-30T06:59:56;8.52;;;4.15;;
6434;SDS011;3250;42.694;23.278;2023-08-30T07:02:23;9.25;;;5.78;;
6434;SDS011;3250;42.694;23.278;2023-08-30T07:04:48;6.15;;;3.83;;
6434;SDS011;3250;42.694;23.278;2023-08-30T07:07:13;6.50;;;3.63;;
6434;SDS011;3250;42.694;23.278;2023-08-30T07:09:39;6.50;;;3.08;;
6434;SDS011;3250;42.694;23.278;2023-08-30T07:12:06;9.65;;;4.00;;
6434;SDS011;3250;42.694;23.278;2023-08-30T07:14:32;6.28;;;3.10;;
6434;SDS011;3250;42.694;23.278;2023-08-30T07:16:57;5.00;;;2.78;;
6434;SDS011;3250;42.694;23.278;2023-08-30T07:19:24;8.45;;;3.28;;
6434;SDS011;3250;42.694;23.278;2023-08-30T07:21:50;5.07;;;3.08;;
6434;SDS011;3250;42.694;23.278;2023-08-30T07:24:15;6.43;;;3.30;;
6434;SDS011;3250;42.694;23.278;2023-08-30T07:26:40;6.40;;;3.50;;
6434;SDS011;3250;42.694;23.278;2023-08-30T07:29:06;5.07;;;3.35;;
6434;SDS011;3250;42.694;23.278;2023-08-30T07:31:32;10.05;;;3.05;;
6434;SDS011;3250;42.694;23.278;2023-08-30T07:33:57;6.18;;;3.45;;
6434;SDS011;3250;42.694;23.278;2023-08-30T07:36:24;6.68;;;3.50;;
6434;SDS011;3250;42.694;23.278;2023-08-30T07:38:52;7.60;;;3.13;;
6434;SDS011;3250;42.694;23.278;2023-08-30T07:41:17;7.13;;;3.03;;
6434;SDS011;3250;42.694;23.278;2023-08-30T07:43:43;5.85;;;3.13;;
6434;SDS011;3250;42.694;23.278;2023-08-30T07:46:08;5.32;;;2.97;;
6434;SDS011;3250;42.694;23.278;2023-08-30T07:48:33;7.95;;;3.13;;
6434;SDS011;3250;42.694;23.278;2023-08-30T07:50:59;4.88;;;2.72;;
6434;SDS011;3250;42.694;23.278;2023-08-30T07:53:24;5.35;;;3.22;;
6434;SDS011;3250;42.694;23.278;2023-08-30T07:55:50;5.78;;;3.25;;
6434;SDS011;3250;42.694;23.278;2023-08-30T07:58:16;6.00;;;3.45;;
6434;SDS011;3250;42.694;23.278;2023-08-30T08:00:42;7.38;;;3.13;;
6434;SDS011;3250;42.694;23.278;2023-08-30T08:03:09;4.72;;;2.50;;
6434;SDS011;3250;42.694;23.278;2023-08-30T08:05:35;9.38;;;3.53;;
6434;SDS011;3250;42.694;23.278;2023-08-30T08:08:01;7.63;;;3.22;;
6434;SDS011;3250;42.694;23.278;2023-08-30T08:10:28;5.95;;;3.30;;
6434;SDS011;3250;42.694;23.278;2023-08-30T08:12:58;7.25;;;2.63;;
6434;SDS011;3250;42.694;23.278;2023-08-30T08:15:23;7.72;;;3.75;;
6434;SDS011;3250;42.694;23.278;2023-08-30T08:17:49;6.28;;;3.03;;
6434;SDS011;3250;42.694;23.278;2023-08-30T08:20:14;8.45;;;3.40;;
6434;SDS011;3250;42.694;23.278;2023-08-30T08:22:40;7.95;;;2.78;;
6434;SDS011;3250;42.694;23.278;2023-08-30T08:25:05;5.57;;;2.30;;
6434;SDS011;3250;42.694;23.278;2023-08-30T08:27:31;4.03;;;2.28;;
6434;SDS011;3250;42.694;23.278;2023-08-30T08:29:56;8.82;;;2.97;;
6434;SDS011;3250;42.694;23.278;2023-08-30T08:32:24;6.13;;;2.90;;
6434;SDS011;3250;42.694;23.278;2023-08-30T08:34:49;6.30;;;2.45;;
6434;SDS011;3250;42.694;23.278;2023-08-30T08:37:14;6.97;;;3.38;;
6434;SDS011;3250;42.694;23.278;2023-08-30T08:39:41;5.90;;;2.63;;
6434;SDS011;3250;42.694;23.278;2023-08-30T08:42:07;7.57;;;2.55;;
6434;SDS011;3250;42.694;23.278;2023-08-30T08:44:33;4.95;;;3.13;;
6434;SDS011;3250;42.694;23.278;2023-08-30T08:47:03;8.45;;;2.40;;
6434;SDS011;3250;42.694;23.278;2023-08-30T08:49:29;9.85;;;2.30;;
6434;SDS011;3250;42.694;23.278;2023-08-30T08:51:56;6.63;;;2.60;;
6434;SDS011;3250;42.694;23.278;2023-08-30T08:54:22;6.03;;;2.97;;
6434;SDS011;3250;42.694;23.278;2023-08-30T08:56:48;4.78;;;2.40;;
6434;SDS011;3250;42.694;23.278;2023-08-30T08:59:14;5.25;;;3.05;;
6434;SDS011;3250;42.694;23.278;2023-08-30T09:01:39;10.25;;;2.45;;
6434;SDS011;3250;42.694;23.278;2023-08-30T09:04:06;10.40;;;2.40;;
6434;SDS011;3250;42.694;23.278;2023-08-30T09:06:39;5.57;;;2.38;;
6434;SDS011;3250;42.694;23.278;2023-08-30T09:09:05;4.93;;;2.75;;
6434;SDS011;3250;42.694;23.278;2023-08-30T09:11:31;4.43;;;2.38;;
6434;SDS011;3250;42.694;23.278;2023-08-30T09:13:57;6.18;;;2.75;;
6434;SDS011;3250;42.694;23.278;2023-08-30T09:16:22;8.25;;;4.13;;
6434;SDS011;3250;42.694;23.278;2023-08-30T09:19:01;4.88;;;3.17;;
6434;SDS011;3250;42.694;23.278;2023-08-30T09:21:29;7.43;;;2.83;;
6434;SDS011;3250;42.694;23.278;2023-08-30T09:23:56;5.13;;;2.90;;
6434;SDS011;3250;42.694;23.278;2023-08-30T09:26:23;7.00;;;2.90;;
6434;SDS011;3250;42.694;23.278;2023-08-30T09:28:49;4.88;;;2.90;;
6434;SDS011;3250;42.694;23.278;2023-08-30T09:31:18;5.35;;;3.30;;
6434;SDS011;3250;42.694;23.278;2023-08-30T09:33:47;6.63;;;3.00;;
6434;SDS011;3250;42.694;23.278;2023-08-30T09:36:14;6.05;;;3.45;;
6434;SDS011;3250;42.694;23.278;2023-08-30T09:38:40;4.63;;;2.85;;
6434;SDS011;3250;42.694;23.278;2023-08-30T09:41:06;5.30;;;3.10;;
6434;SDS011;3250;42.694;23.278;2023-08-30T09:43:34;6.88;;;3.63;;
6434;SDS011;3250;42.694;23.278;2023-08-30T09:46:03;6.22;;;2.95;;
6434;SDS011;3250;42.694;23.278;2023-08-30T09:48:32;5.53;;;2.42;;
6434;SDS011;3250;42.694;23.278;2023-08-30T09:50:58;7.13;;;2.90;;
6434;SDS011;3250;42.694;23.278;2023-08-30T09:53:25;5.10;;;2.85;;
6434;SDS011;3250;42.694;23.278;2023-08-30T09:55:53;15.13;;;3.33;;
6434;SDS011;3250;42.694;23.278;2023-08-30T09:58:19;5.80;;;3.05;;
6434;SDS011;3250;42.694;23.278;2023-08-30T10:00:46;6.95;;;3.40;;
6434;SDS011;3250;42.694;23.278;2023-08-30T10:03:13;4.35;;;2.88;;
6434;SDS011;3250;42.694;23.278;2023-08-30T10:05:41;5.90;;;2.78;;
6434;SDS011;3250;42.694;23.278;2023-08-30T10:08:08;5.45;;;3.22;;
6434;SDS011;3250;42.694;23.278;2023-08-30T10:10:34;16.15;;;3.72;;
6434;SDS011;3250;42.694;23.278;2023-08-30T10:13:01;17.30;;;3.92;;
6434;SDS011;3250;42.694;23.278;2023-08-30T10:15:26;9.80;;;3.22;;
6434;SDS011;3250;42.694;23.278;2023-08-30T10:17:55;4.43;;;3.53;;
6434;SDS011;3250;42.694;23.278;2023-08-30T10:20:23;6.63;;;3.28;;
6434;SDS011;3250;42.694;23.278;2023-08-30T10:22:48;9.00;;;3.20;;
6434;SDS011;3250;42.694;23.278;2023-08-30T10:25:19;9.40;;;4.07;;
6434;SDS011;3250;42.694;23.278;2023-08-30T10:27:48;5.05;;;3.03;;
6434;SDS011;3250;42.694;23.278;2023-08-30T10:30:15;8.50;;;3.70;;
6434;SDS011;3250;42.694;23.278;2023-08-30T10:32:44;6.57;;;3.65;;
6434;SDS011;3250;42.694;23.278;2023-08-30T10:35:11;6.15;;;3.20;;
6434;SDS011;3250;42.694;23.278;2023-08-30T10:37:41;6.60;;;3.40;;
6434;SDS011;3250;42.694;23.278;2023-08-30T10:40:07;7.38;;;3.63;;
6434;SDS011;3250;42.694;23.278;2023-08-30T10:42:33;7.55;;;3.60;;
6434;SDS011;3250;42.694;23.278;2023-08-30T10:45:00;8.82;;;3.50;;
6434;SDS011;3250;42.694;23.278;2023-08-30T10:47:28;7.25;;;3.20;;
6434;SDS011;3250;42.694;23.278;2023-08-30T10:49:54;5.10;;;3.33;;
6434;SDS011;3250;42.694;23.278;2023-08-30T10:52:21;5.07;;;3.25;;
6434;SDS011;3250;42.694;23.278;2023-08-30T10:54:47;5.68;;;3.55;;
6434;SDS011;3250;42.694;23.278;2023-08-30T10:57:14;5.00;;;3.53;;
6434;SDS011;3250;42.694;23.278;2023-08-30T10:59:47;7.43;;;4.20;;
6434;SDS011;3250;42.694;23.278;2023-08-30T11:02:29;6.65;;;3.85;;
6434;SDS011;3250;42.694;23.278;2023-08-30T11:04:55;8.30;;;3.42;;
6434;SDS011;3250;42.694;23.278;2023-08-30T11:07:24;7.75;;;4.18;;
6434;SDS011;3250;42.694;23.278;2023-08-30T11:09:51;11.43;;;4.05;;
6434;SDS011;3250;42.694;23.278;2023-08-30T11:12:19;6.80;;;3.67;;
6434;SDS011;3250;42.694;23.278;2023-08-30T11:14:48;8.18;;;4.70;;
6434;SDS011;3250;42.694;23.278;2023-08-30T11:17:21;12.27;;;5.47;;
6434;SDS011;3250;42.694;23.278;2023-08-30T11:19:49;6.53;;;3.83;;
6434;SDS011;3250;42.694;23.278;2023-08-30T11:22:15;6.68;;;3.17;;
6434;SDS011;3250;42.694;23.278;2023-08-30T11:24:42;8.55;;;3.40;;
6434;SDS011;3250;42.694;23.278;2023-08-30T11:27:08;5.82;;;3.30;;
6434;SDS011;3250;42.694;23.278;2023-08-30T11:29:34;5.47;;;2.88;;
6434;SDS011;3250;42.694;23.278;2023-08-30T11:32:00;4.00;;;3.17;;
6434;SDS011;3250;42.694;23.278;2023-08-30T11:34:25;3.70;;;3.05;;
6434;SDS011;3250;42.694;23.278;2023-08-30T11:36:51;5.90;;;3.65;;
6434;SDS011;3250;42.694;23.278;2023-08-30T11:39:18;6.03;;;3.33;;
6434;SDS011;3250;42.694;23.278;2023-08-30T11:41:48;6.90;;;2.80;;
6434;SDS011;3250;42.694;23.278;2023-08-30T11:44:15;6.30;;;3.20;;
6434;SDS011;3250;42.694;23.278;2023-08-30T11:46:41;4.68;;;3.40;;
6434;SDS011;3250;42.694;23.278;2023-08-30T11:49:07;13.70;;;3.80;;
6434;SDS011;3250;42.694;23.278;2023-08-30T11:51:32;3.83;;;2.95;;
6434;SDS011;3250;42.694;23.278;2023-08-30T11:53:58;10.13;;;3.65;;
6434;SDS011;3250;42.694;23.278;2023-08-30T11:56:26;4.53;;;3.47;;
6434;SDS011;3250;42.694;23.278;2023-08-30T11:58:52;7.07;;;3.80;;
6434;SDS011;3250;42.694;23.278;2023-08-30T12:01:18;8.32;;;3.60;;
6434;SDS011;3250;42.694;23.278;2023-08-30T12:03:44;9.55;;;3.65;;
6434;SDS011;3250;42.694;23.278;2023-08-30T12:06:15;7.45;;;3.47;;
6434;SDS011;3250;42.694;23.278;2023-08-30T12:08:41;5.00;;;3.13;;
6434;SDS011;3250;42.694;23.278;2023-08-30T12:11:16;3.92;;;3.05;;
6434;SDS011;3250;42.694;23.278;2023-08-30T12:13:43;4.45;;;3.75;;
6434;SDS011;3250;42.694;23.278;2023-08-30T12:16:08;9.05;;;4.18;;
6434;SDS011;3250;42.694;23.278;2023-08-30T12:18:40;7.45;;;3.58;;
6434;SDS011;3250;42.694;23.278;2023-08-30T12:21:07;9.95;;;3.95;;
6434;SDS011;3250;42.694;23.278;2023-08-30T12:23:33;6.65;;;3.70;;
6434;SDS011;3250;42.694;23.278;2023-08-30T12:28:32;6.20;;;3.80;;
6434;SDS011;3250;42.694;23.278;2023-08-30T12:31:09;5.30;;;3.40;;
6434;SDS011;3250;42.694;23.278;2023-08-30T12:33:35;4.15;;;3.50;;
6434;SDS011;3250;42.694;23.278;2023-08-30T12:36:02;7.85;;;4.15;;
6434;SDS011;3250;42.694;23.278;2023-08-30T12:38:28;6.82;;;4.10;;
6434;SDS011;3250;42.694;23.278;2023-08-30T12:40:54;8.85;;;3.70;;
6434;SDS011;3250;42.694;23.278;2023-08-30T12:43:21;7.00;;;3.92;;
6434;SDS011;3250;42.694;23.278;2023-08-30T12:45:48;6.40;;;3.40;;
6434;SDS011;3250;42.694;23.278;2023-08-30T12:48:14;8.10;;;3.67;;
6434;SDS011;3250;42.694;23.278;2023-08-30T12:50:43;5.10;;;3.45;;
6434;SDS011;3250;42.694;23.278;2023-08-30T12:53:12;8.25;;;3.45;;
6434;SDS011;3250;42.694;23.278;2023-08-30T12:55:37;5.78;;;3.47;;
6434;SDS011;3250;42.694;23.278;2023-08-30T12:58:06;7.70;;;3.25;;
6434;SDS011;3250;42.694;23.278;2023-08-30T13:00:33;12.38;;;4.40;;
6434;SDS011;3250;42.694;23.278;2023-08-30T13:02:59;7.47;;;3.53;;
6434;SDS011;3250;42.694;23.278;2023-08-30T13:05:25;6.82;;;3.63;;
6434;SDS011;3250;42.694;23.278;2023-08-30T13:07:50;9.38;;;4.07;;
6434;SDS011;3250;42.694;23.278;2023-08-30T13:10:16;4.65;;;3.38;;
6434;SDS011;3250;42.694;23.278;2023-08-30T13:12:42;5.82;;;3.45;;
6434;SDS011;3250;42.694;23.278;2023-08-30T13:15:08;8.32;;;3.47;;
6434;SDS011;3250;42.694;23.278;2023-08-30T13:17:34;7.32;;;3.28;;
6434;SDS011;3250;42.694;23.278;2023-08-30T13:19:59;5.22;;;2.92;;
6434;SDS011;3250;42.694;23.278;2023-08-30T13:22:26;8.88;;;3.13;;
6434;SDS011;3250;42.694;23.278;2023-08-30T13:24:52;5.25;;;3.45;;
6434;SDS011;3250;42.694;23.278;2023-08-30T13:27:18;6.80;;;3.53;;
6434;SDS011;3250;42.694;23.278;2023-08-30T13:29:44;9.25;;;3.30;;
6434;SDS011;3250;42.694;23.278;2023-08-30T13:32:10;7.82;;;3.45;;
6434;SDS011;3250;42.694;23.278;2023-08-30T13:34:35;4.53;;;3.08;;
6434;SDS011;3250;42.694;23.278;2023-08-30T13:37:00;5.75;;;3.63;;
6434;SDS011;3250;42.694;23.278;2023-08-30T13:39:26;5.40;;;3.08;;
6434;SDS011;3250;42.694;23.278;2023-08-30T13:41:51;3.47;;;2.97;;
6434;SDS011;3250;42.694;23.278;2023-08-30T13:44:17;4.03;;;2.85;;
6434;SDS011;3250;42.694;23.278;2023-08-30T13:46:43;8.73;;;3.17;;
6434;SDS011;3250;42.694;23.278;2023-08-30T13:49:09;7.10;;;3.30;;
6434;SDS011;3250;42.694;23.278;2023-08-30T13:51:34;6.32;;;2.83;;
6434;SDS011;3250;42.694;23.278;2023-08-30T13:54:01;6.18;;;3.17;;
6434;SDS011;3250;42.694;23.278;2023-08-30T13:56:26;10.07;;;2.75;;
6434;SDS011;3250;42.694;23.278;2023-08-30T13:58:52;6.82;;;3.47;;
6434;SDS011;3250;42.694;23.278;2023-08-30T14:01:17;5.22;;;3.47;;
6434;SDS011;3250;42.694;23.278;2023-08-30T14:03:43;4.10;;;2.85;;
6434;SDS011;3250;42.694;23.278;2023-08-30T14:06:08;5.32;;;3.42;;
6434;SDS011;3250;42.694;23.278;2023-08-30T14:08:34;5.45;;;3.33;;
6434;SDS011;3250;42.694;23.278;2023-08-30T14:11:00;4.45;;;3.20;;
6434;SDS011;3250;42.694;23.278;2023-08-30T14:13:25;10.35;;;3.03;;
6434;SDS011;3250;42.694;23.278;2023-08-30T14:15:53;10.13;;;3.83;;
6434;SDS011;3250;42.694;23.278;2023-08-30T14:18:18;4.32;;;2.85;;
6434;SDS011;3250;42.694;23.278;2023-08-30T14:20:44;8.48;;;3.42;;
6434;SDS011;3250;42.694;23.278;2023-08-30T14:23:09;5.88;;;2.85;;
6434;SDS011;3250;42.694;23.278;2023-08-30T14:25:35;7.68;;;3.15;;
6434;SDS011;3250;42.694;23.278;2023-08-30T14:28:01;10.15;;;2.75;;
6434;SDS011;3250;42.694;23.278;2023-08-30T14:30:27;9.18;;;3.50;;
6434;SDS011;3250;42.694;23.278;2023-08-30T14:32:53;4.28;;;3.05;;
6434;SDS011;3250;42.694;23.278;2023-08-30T14:35:18;5.20;;;2.80;;
6434;SDS011;3250;42.694;23.278;2023-08-30T14:37:49;5.82;;;2.63;;
6434;SDS011;3250;42.694;23.278;2023-08-30T14:40:15;6.38;;;2.72;;
6434;SDS011;3250;42.694;23.278;2023-08-30T14:42:41;8.80;;;3.00;;
6434;SDS011;3250;42.694;23.278;2023-08-30T14:45:06;16.55;;;3.30;;
6434;SDS011;3250;42.694;23.278;2023-08-30T14:47:32;7.28;;;3.15;;
6434;SDS011;3250;42.694;23.278;2023-08-30T14:49:58;7.80;;;4.35;;
6434;SDS011;3250;42.694;23.278;2023-08-30T14:52:26;10.10;;;4.00;;
6434;SDS011;3250;42.694;23.278;2023-08-30T14:54:51;10.90;;;3.78;;
6434;SDS011;3250;42.694;23.278;2023-08-30T14:57:17;5.45;;;2.92;;
6434;SDS011;3250;42.694;23.278;2023-08-30T14:59:42;8.70;;;3.17;;
6434;SDS011;3250;42.694;23.278;2023-08-30T15:02:08;5.38;;;2.45;;